sensor_id;sensor_type;location;lat;lon;timestamp;pressure;altitude;pressure_sealevel;temperature
31528;BMP280;10206;48.012;10.030;2022-11-20T00:00:12;94243.47;;;5.25
31528;BMP280;10206;48.012;10.030;2022-11-20T00:02:38;94242.75;;;5.32
31528;BMP280;10206;48.012;10.030;2022-11-20T00:05:04;94252.88;;;5.39
31528;BMP280;10206;48.012;10.030;2022-11-20T00:07:30;94249.06;;;5.49
31528;BMP280;10206;48.012;10.030;2022-11-20T00:09:56;94243.47;;;5.62
31528;BMP280;10206;48.012;10.030;2022-11-20T00:12:23;94246.53;;;5.66
31528;BMP280;10206;48.012;10.030;2022-11-20T00:14:49;94249.38;;;5.91
31528;BMP280;10206;48.012;10.030;2022-11-20T00:17:15;94258.94;;;6.00
31528;BMP280;10206;48.012;10.030;2022-11-20T00:19:41;94252.22;;;6.16
31528;BMP280;10206;48.012;10.030;2022-11-20T00:22:07;94261.38;;;6.36
31528;BMP280;10206;48.012;10.030;2022-11-20T00:24:33;94259.13;;;6.49
31528;BMP280;10206;48.012;10.030;2022-11-20T00:26:59;94261.63;;;6.55
31528;BMP280;10206;48.012;10.030;2022-11-20T00:29:25;94266.69;;;6.58
31528;BMP280;10206;48.012;10.030;2022-11-20T00:31:51;94264.69;;;6.59
31528;BMP280;10206;48.012;10.030;2022-11-20T00:34:17;94256.88;;;6.70
31528;BMP280;10206;48.012;10.030;2022-11-20T00:36:43;94261.84;;;6.81
31528;BMP280;10206;48.012;10.030;2022-11-20T00:39:09;94272.66;;;6.97
31528;BMP280;10206;48.012;10.030;2022-11-20T00:41:35;94272.56;;;7.12
31528;BMP280;10206;48.012;10.030;2022-11-20T00:44:02;94272.59;;;7.04
31528;BMP280;10206;48.012;10.030;2022-11-20T00:46:28;94279.13;;;7.01
31528;BMP280;10206;48.012;10.030;2022-11-20T00:48:54;94286.34;;;6.99
31528;BMP280;10206;48.012;10.030;2022-11-20T00:51:23;94288.47;;;7.08
31528;BMP280;10206;48.012;10.030;2022-11-20T00:53:49;94289.19;;;7.08
31528;BMP280;10206;48.012;10.030;2022-11-20T00:56:17;94284.66;;;7.11
31528;BMP280;10206;48.012;10.030;2022-11-20T00:58:46;94281.91;;;7.18
31528;BMP280;10206;48.012;10.030;2022-11-20T01:01:20;94288.22;;;7.21
31528;BMP280;10206;48.012;10.030;2022-11-20T01:03:48;94284.41;;;7.24
31528;BMP280;10206;48.012;10.030;2022-11-20T01:06:20;94282.25;;;7.22
31528;BMP280;10206;48.012;10.030;2022-11-20T01:08:48;94283.03;;;7.15
31528;BMP280;10206;48.012;10.030;2022-11-20T01:11:17;94289.19;;;7.08
31528;BMP280;10206;48.012;10.030;2022-11-20T01:13:44;94286.66;;;7.10
31528;BMP280;10206;48.012;10.030;2022-11-20T01:16:15;94294.84;;;7.03
31528;BMP280;10206;48.012;10.030;2022-11-20T01:18:44;94297.50;;;7.10
31528;BMP280;10206;48.012;10.030;2022-11-20T01:21:17;94294.97;;;7.12
31528;BMP280;10206;48.012;10.030;2022-11-20T01:23:44;94294.19;;;7.19
31528;BMP280;10206;48.012;10.030;2022-11-20T01:26:12;94296.69;;;7.25
31528;BMP280;10206;48.012;10.030;2022-11-20T01:28:40;94293.75;;;7.30
31528;BMP280;10206;48.012;10.030;2022-11-20T01:33:44;94301.97;;;7.23
31528;BMP280;10206;48.012;10.030;2022-11-20T01:36:11;94306.34;;;7.11
31528;BMP280;10206;48.012;10.030;2022-11-20T01:38:38;94299.44;;;7.17
31528;BMP280;10206;48.012;10.030;2022-11-20T01:41:05;94299.81;;;7.14
31528;BMP280;10206;48.012;10.030;2022-11-20T01:43:32;94303.44;;;7.16
31528;BMP280;10206;48.012;10.030;2022-11-20T01:46:18;94299.41;;;7.25
31528;BMP280;10206;48.012;10.030;2022-11-20T01:49:03;94303.16;;;7.29
31528;BMP280;10206;48.012;10.030;2022-11-20T01:51:39;94294.09;;;7.34
31528;BMP280;10206;48.012;10.030;2022-11-20T01:54:14;94303.59;;;7.43
31528;BMP280;10206;48.012;10.030;2022-11-20T01:56:44;94304.16;;;7.41
31528;BMP280;10206;48.012;10.030;2022-11-20T01:59:13;94303.06;;;7.44
31528;BMP280;10206;48.012;10.030;2022-11-20T02:01:41;94309.84;;;7.53
31528;BMP280;10206;48.012;10.030;2022-11-20T02:04:08;94299.25;;;7.47
31528;BMP280;10206;48.012;10.030;2022-11-20T02:06:45;94311.28;;;7.62
31528;BMP280;10206;48.012;10.030;2022-11-20T02:09:12;94300.69;;;7.48
31528;BMP280;10206;48.012;10.030;2022-11-20T02:11:39;94302.69;;;7.48
31528;BMP280;10206;48.012;10.030;2022-11-20T02:14:05;94294.66;;;7.57
31528;BMP280;10206;48.012;10.030;2022-11-20T02:16:37;94297.53;;;7.59
31528;BMP280;10206;48.012;10.030;2022-11-20T02:19:23;94297.53;;;7.59
31528;BMP280;10206;48.012;10.030;2022-11-20T02:22:04;94296.41;;;7.63
31528;BMP280;10206;48.012;10.030;2022-11-20T02:24:31;94295.13;;;7.64
31528;BMP280;10206;48.012;10.030;2022-11-20T02:27:14;94291.31;;;7.67
31528;BMP280;10206;48.012;10.030;2022-11-20T02:29:48;94282.22;;;7.72
31528;BMP280;10206;48.012;10.030;2022-11-20T02:32:33;94283.31;;;7.69
31528;BMP280;10206;48.012;10.030;2022-11-20T02:37:54;94281.78;;;7.83
31528;BMP280;10206;48.012;10.030;2022-11-20T02:40:21;94284.22;;;7.88
31528;BMP280;10206;48.012;10.030;2022-11-20T02:42:47;94289.28;;;7.92
31528;BMP280;10206;48.012;10.030;2022-11-20T02:45:14;94284.97;;;7.89
31528;BMP280;10206;48.012;10.030;2022-11-20T02:47:40;94293.59;;;7.95
31528;BMP280;10206;48.012;10.030;2022-11-20T02:50:06;94282.09;;;8.04
31528;BMP280;10206;48.012;10.030;2022-11-20T02:52:33;94290.38;;;7.89
31528;BMP280;10206;48.012;10.030;2022-11-20T02:54:59;94284.56;;;7.92
31528;BMP280;10206;48.012;10.030;2022-11-20T02:57:25;94284.16;;;7.96
31528;BMP280;10206;48.012;10.030;2022-11-20T02:59:51;94278.88;;;7.98
31528;BMP280;10206;48.012;10.030;2022-11-20T03:02:17;94284.97;;;7.89
31528;BMP280;10206;48.012;10.030;2022-11-20T03:04:43;94278.19;;;7.80
31528;BMP280;10206;48.012;10.030;2022-11-20T03:07:09;94281.78;;;7.83
31528;BMP280;10206;48.012;10.030;2022-11-20T03:09:36;94280.53;;;7.59
31528;BMP280;10206;48.012;10.030;2022-11-20T03:12:02;94274.28;;;7.91
31528;BMP280;10206;48.012;10.030;2022-11-20T03:14:28;94282.81;;;7.87
31528;BMP280;10206;48.012;10.030;2022-11-20T03:16:55;94279.16;;;7.92
31528;BMP280;10206;48.012;10.030;2022-11-20T03:19:22;94283.41;;;8.03
31528;BMP280;10206;48.012;10.030;2022-11-20T03:21:48;94277.78;;;8.01
31528;BMP280;10206;48.012;10.030;2022-11-20T03:24:14;94289.56;;;8.03
31528;BMP280;10206;48.012;10.030;2022-11-20T03:26:41;94283.78;;;7.99
31528;BMP280;10206;48.012;10.030;2022-11-20T03:29:07;94285.47;;;7.95
31528;BMP280;10206;48.012;10.030;2022-11-20T03:31:39;94281.13;;;7.92
31528;BMP280;10206;48.012;10.030;2022-11-20T03:34:09;94281.34;;;7.86
31528;BMP280;10206;48.012;10.030;2022-11-20T03:36:38;94285.31;;;7.93
31528;BMP280;10206;48.012;10.030;2022-11-20T03:39:04;94289.47;;;7.94
31528;BMP280;10206;48.012;10.030;2022-11-20T03:41:35;94285.94;;;8.01
31528;BMP280;10206;48.012;10.030;2022-11-20T03:44:03;94285.63;;;7.97
31528;BMP280;10206;48.012;10.030;2022-11-20T03:46:31;94285.34;;;7.85
31528;BMP280;10206;48.012;10.030;2022-11-20T03:48:57;94286.75;;;7.94
31528;BMP280;10206;48.012;10.030;2022-11-20T03:51:28;94289.41;;;7.77
31528;BMP280;10206;48.012;10.030;2022-11-20T03:53:56;94286.84;;;7.79
31528;BMP280;10206;48.012;10.030;2022-11-20T03:56:28;94298.19;;;7.68
31528;BMP280;10206;48.012;10.030;2022-11-20T03:58:55;94295.00;;;7.62
31528;BMP280;10206;48.012;10.030;2022-11-20T04:01:29;94289.75;;;7.81
31528;BMP280;10206;48.012;10.030;2022-11-20T04:03:56;94285.50;;;7.70
31528;BMP280;10206;48.012;10.030;2022-11-20T04:06:26;94284.44;;;7.66
31528;BMP280;10206;48.012;10.030;2022-11-20T04:08:55;94287.66;;;7.72
31528;BMP280;10206;48.012;10.030;2022-11-20T04:11:24;94290.84;;;7.61
31528;BMP280;10206;48.012;10.030;2022-11-20T04:13:52;94289.28;;;7.50
31528;BMP280;10206;48.012;10.030;2022-11-20T04:16:20;94287.72;;;7.39
31528;BMP280;10206;48.012;10.030;2022-11-20T04:18:47;94291.84;;;7.48
31528;BMP280;10206;48.012;10.030;2022-11-20T04:21:13;94291.28;;;7.49
31528;BMP280;10206;48.012;10.030;2022-11-20T04:23:39;94289.50;;;7.44
31528;BMP280;10206;48.012;10.030;2022-11-20T04:26:08;94284.72;;;7.52
31528;BMP280;10206;48.012;10.030;2022-11-20T04:28:34;94284.72;;;7.52
31528;BMP280;10206;48.012;10.030;2022-11-20T04:31:06;94284.59;;;7.50
31528;BMP280;10206;48.012;10.030;2022-11-20T04:33:33;94282.38;;;7.74
31528;BMP280;10206;48.012;10.030;2022-11-20T04:36:21;94287.56;;;7.62
31528;BMP280;10206;48.012;10.030;2022-11-20T04:38:55;94286.50;;;7.57
31528;BMP280;10206;48.012;10.030;2022-11-20T04:41:23;94276.28;;;7.48
31528;BMP280;10206;48.012;10.030;2022-11-20T04:43:51;94280.47;;;7.42
31528;BMP280;10206;48.012;10.030;2022-11-20T04:46:19;94274.94;;;7.32
31528;BMP280;10206;48.012;10.030;2022-11-20T04:48:45;94279.88;;;7.26
31528;BMP280;10206;48.012;10.030;2022-11-20T04:51:11;94283.47;;;7.29
31528;BMP280;10206;48.012;10.030;2022-11-20T04:53:38;94278.97;;;7.24
31528;BMP280;10206;48.012;10.030;2022-11-20T04:56:06;94284.25;;;6.89
31528;BMP280;10206;48.012;10.030;2022-11-20T04:58:34;94282.31;;;7.07
31528;BMP280;10206;48.012;10.030;2022-11-20T05:03:28;94271.75;;;6.94
31528;BMP280;10206;48.012;10.030;2022-11-20T05:05:54;94279.03;;;6.84
31528;BMP280;10206;48.012;10.030;2022-11-20T05:08:20;94286.19;;;6.57
31528;BMP280;10206;48.012;10.030;2022-11-20T05:10:47;94278.22;;;6.59
31528;BMP280;10206;48.012;10.030;2022-11-20T05:13:13;94284.22;;;6.97
31528;BMP280;10206;48.012;10.030;2022-11-20T05:15:39;94274.88;;;7.15
31528;BMP280;10206;48.012;10.030;2022-11-20T05:18:05;94281.91;;;7.18
31528;BMP280;10206;48.012;10.030;2022-11-20T05:20:31;94284.88;;;7.05
31528;BMP280;10206;48.012;10.030;2022-11-20T05:22:58;94277.59;;;7.15
31528;BMP280;10206;48.012;10.030;2022-11-20T05:25:24;94283.13;;;7.25
31528;BMP280;10206;48.012;10.030;2022-11-20T05:27:51;94285.59;;;7.38
31528;BMP280;10206;48.012;10.030;2022-11-20T05:30:17;94280.00;;;7.36
31528;BMP280;10206;48.012;10.030;2022-11-20T05:32:43;94288.50;;;7.32
31528;BMP280;10206;48.012;10.030;2022-11-20T05:35:09;94288.25;;;7.45
31528;BMP280;10206;48.012;10.030;2022-11-20T05:37:35;94286.00;;;7.27
31528;BMP280;10206;48.012;10.030;2022-11-20T05:40:01;94295.91;;;7.32
31528;BMP280;10206;48.012;10.030;2022-11-20T05:42:30;94299.88;;;7.38
31528;BMP280;10206;48.012;10.030;2022-11-20T05:45:01;94296.66;;;7.32
31528;BMP280;10206;48.012;10.030;2022-11-20T05:47:30;94295.47;;;7.43
31528;BMP280;10206;48.012;10.030;2022-11-20T05:49:56;94297.25;;;7.48
31528;BMP280;10206;48.012;10.030;2022-11-20T05:52:23;94302.53;;;7.63
31528;BMP280;10206;48.012;10.030;2022-11-20T05:54:49;94303.16;;;7.54
31528;BMP280;10206;48.012;10.030;2022-11-20T05:57:15;94303.94;;;7.47
31528;BMP280;10206;48.012;10.030;2022-11-20T05:59:42;94304.16;;;7.41
31528;BMP280;10206;48.012;10.030;2022-11-20T06:02:08;94303.78;;;7.45
31528;BMP280;10206;48.012;10.030;2022-11-20T06:04:34;94300.50;;;7.46
31528;BMP280;10206;48.012;10.030;2022-11-20T06:07:00;94296.53;;;7.47
31528;BMP280;10206;48.012;10.030;2022-11-20T06:09:26;94293.38;;;7.34
31528;BMP280;10206;48.012;10.030;2022-11-20T06:11:52;94293.44;;;7.26
31528;BMP280;10206;48.012;10.030;2022-11-20T06:14:18;94303.56;;;7.50
31528;BMP280;10206;48.012;10.030;2022-11-20T06:16:45;94298.28;;;7.52
31528;BMP280;10206;48.012;10.030;2022-11-20T06:19:11;94299.53;;;7.34
31528;BMP280;10206;48.012;10.030;2022-11-20T06:21:37;94306.50;;;7.70
31528;BMP280;10206;48.012;10.030;2022-11-20T06:24:03;94304.69;;;7.40
31528;BMP280;10206;48.012;10.030;2022-11-20T06:26:30;94310.09;;;7.47
31528;BMP280;10206;48.012;10.030;2022-11-20T06:28:57;94299.09;;;7.45
31528;BMP280;10206;48.012;10.030;2022-11-20T06:31:26;94304.69;;;7.47
31528;BMP280;10206;48.012;10.030;2022-11-20T06:33:52;94308.84;;;7.66
31528;BMP280;10206;48.012;10.030;2022-11-20T06:36:21;94297.41;;;7.75
31528;BMP280;10206;48.012;10.030;2022-11-20T06:38:48;94303.44;;;7.66
31528;BMP280;10206;48.012;10.030;2022-11-20T06:41:19;94305.50;;;7.57
31528;BMP280;10206;48.012;10.030;2022-11-20T06:43:46;94306.41;;;7.52
31528;BMP280;10206;48.012;10.030;2022-11-20T06:46:13;94305.94;;;7.46
31528;BMP280;10206;48.012;10.030;2022-11-20T06:48:40;94307.75;;;7.69
31528;BMP280;10206;48.012;10.030;2022-11-20T06:51:07;94302.78;;;7.57
31528;BMP280;10206;48.012;10.030;2022-11-20T06:53:34;94318.28;;;7.65
31528;BMP280;10206;48.012;10.030;2022-11-20T06:56:01;94320.16;;;7.79
31528;BMP280;10206;48.012;10.030;2022-11-20T06:58:28;94316.81;;;7.88
31528;BMP280;10206;48.012;10.030;2022-11-20T07:01:01;94312.25;;;7.74
31528;BMP280;10206;48.012;10.030;2022-11-20T07:03:27;94316.63;;;7.94
31528;BMP280;10206;48.012;10.030;2022-11-20T07:05:57;94320.78;;;7.70
31528;BMP280;10206;48.012;10.030;2022-11-20T07:08:24;94322.09;;;7.86
31528;BMP280;10206;48.012;10.030;2022-11-20T07:10:50;94318.38;;;8.16
31528;BMP280;10206;48.012;10.030;2022-11-20T07:13:17;94325.41;;;8.02
31528;BMP280;10206;48.012;10.030;2022-11-20T07:15:43;94326.13;;;8.02
31528;BMP280;10206;48.012;10.030;2022-11-20T07:18:09;94328.84;;;8.02
31528;BMP280;10206;48.012;10.030;2022-11-20T07:20:35;94329.06;;;7.97
31528;BMP280;10206;48.012;10.030;2022-11-20T07:23:01;94333.19;;;7.98
31528;BMP280;10206;48.012;10.030;2022-11-20T07:25:28;94335.97;;;7.73
31528;BMP280;10206;48.012;10.030;2022-11-20T07:27:58;94330.81;;;8.02
31528;BMP280;10206;48.012;10.030;2022-11-20T07:30:24;94342.63;;;7.97
31528;BMP280;10206;48.012;10.030;2022-11-20T07:32:55;94339.69;;;7.61
31528;BMP280;10206;48.012;10.030;2022-11-20T07:35:25;94337.06;;;7.95
31528;BMP280;10206;48.012;10.030;2022-11-20T07:37:51;94331.94;;;8.16
31528;BMP280;10206;48.012;10.030;2022-11-20T07:40:18;94333.84;;;7.89
31528;BMP280;10206;48.012;10.030;2022-11-20T07:42:50;94332.84;;;8.18
31528;BMP280;10206;48.012;10.030;2022-11-20T07:45:18;94334.44;;;8.04
31528;BMP280;10206;48.012;10.030;2022-11-20T07:47:44;94341.22;;;8.30
31528;BMP280;10206;48.012;10.030;2022-11-20T07:50:11;94338.69;;;8.15
31528;BMP280;10206;48.012;10.030;2022-11-20T07:52:37;94339.44;;;8.08
31528;BMP280;10206;48.012;10.030;2022-11-20T07:55:03;94344.28;;;8.34
31528;BMP280;10206;48.012;10.030;2022-11-20T07:57:30;94345.47;;;8.23
31528;BMP280;10206;48.012;10.030;2022-11-20T07:59:57;94343.38;;;8.66
31528;BMP280;10206;48.012;10.030;2022-11-20T08:02:23;94348.53;;;8.45
31528;BMP280;10206;48.012;10.030;2022-11-20T08:04:49;94351.84;;;8.70
31528;BMP280;10206;48.012;10.030;2022-11-20T08:07:15;94348.91;;;8.41
31528;BMP280;10206;48.012;10.030;2022-11-20T08:09:41;94344.50;;;8.46
31528;BMP280;10206;48.012;10.030;2022-11-20T08:12:07;94348.41;;;8.52
31528;BMP280;10206;48.012;10.030;2022-11-20T08:14:52;94348.91;;;8.41
31528;BMP280;10206;48.012;10.030;2022-11-20T08:17:18;94339.94;;;8.65
31528;BMP280;10206;48.012;10.030;2022-11-20T08:19:44;94355.00;;;8.66
31528;BMP280;10206;48.012;10.030;2022-11-20T08:22:10;94349.91;;;9.24
31528;BMP280;10206;48.012;10.030;2022-11-20T08:24:36;94351.44;;;9.17
31528;BMP280;10206;48.012;10.030;2022-11-20T08:27:02;94348.50;;;9.23
31528;BMP280;10206;48.012;10.030;2022-11-20T08:29:28;94349.53;;;9.37
31528;BMP280;10206;48.012;10.030;2022-11-20T08:31:55;94350.75;;;9.26
31528;BMP280;10206;48.012;10.030;2022-11-20T08:34:21;94355.75;;;9.20
31528;BMP280;10206;48.012;10.030;2022-11-20T08:36:47;94348.72;;;8.90
31528;BMP280;10206;48.012;10.030;2022-11-20T08:39:13;94350.09;;;9.72
31528;BMP280;10206;48.012;10.030;2022-11-20T08:41:40;94358.31;;;9.45
31528;BMP280;10206;48.012;10.030;2022-11-20T08:44:08;94356.41;;;9.38
31528;BMP280;10206;48.012;10.030;2022-11-20T08:46:39;94346.88;;;9.56
31528;BMP280;10206;48.012;10.030;2022-11-20T08:49:08;94335.44;;;9.57
31528;BMP280;10206;48.012;10.030;2022-11-20T08:51:35;94340.13;;;9.47
31528;BMP280;10206;48.012;10.030;2022-11-20T08:54:02;94328.00;;;9.22
31528;BMP280;10206;48.012;10.030;2022-11-20T08:56:28;94342.66;;;9.36
31528;BMP280;10206;48.012;10.030;2022-11-20T08:58:54;94353.38;;;9.70
31528;BMP280;10206;48.012;10.030;2022-11-20T09:01:22;94340.38;;;9.88
31528;BMP280;10206;48.012;10.030;2022-11-20T09:03:49;94354.91;;;9.54
31528;BMP280;10206;48.012;10.030;2022-11-20T09:06:15;94350.56;;;9.15
31528;BMP280;10206;48.012;10.030;2022-11-20T09:08:42;94352.41;;;8.68
31528;BMP280;10206;48.012;10.030;2022-11-20T09:11:09;94353.91;;;8.96
31528;BMP280;10206;48.012;10.030;2022-11-20T09:13:36;94354.97;;;8.83
31528;BMP280;10206;48.012;10.030;2022-11-20T09:16:07;94349.19;;;8.79
31528;BMP280;10206;48.012;10.030;2022-11-20T09:18:34;94356.78;;;9.25
31528;BMP280;10206;48.012;10.030;2022-11-20T09:21:06;94354.81;;;9.35
31528;BMP280;10206;48.012;10.030;2022-11-20T09:23:36;94356.81;;;9.08
31528;BMP280;10206;48.012;10.030;2022-11-20T09:26:09;94360.00;;;9.14
31528;BMP280;10206;48.012;10.030;2022-11-20T09:28:36;94364.53;;;9.55
31528;BMP280;10206;48.012;10.030;2022-11-20T09:31:13;94358.78;;;9.51
31528;BMP280;10206;48.012;10.030;2022-11-20T09:33:43;94355.50;;;9.62
31528;BMP280;10206;48.012;10.030;2022-11-20T09:36:09;94356.78;;;9.61
31528;BMP280;10206;48.012;10.030;2022-11-20T09:38:35;94360.19;;;9.52
31528;BMP280;10206;48.012;10.030;2022-11-20T09:41:06;94372.22;;;9.85
31528;BMP280;10206;48.012;10.030;2022-11-20T09:46:41;94370.44;;;9.71
31528;BMP280;10206;48.012;10.030;2022-11-20T09:55:16;94358.59;;;9.49
31528;BMP280;10206;48.012;10.030;2022-11-20T09:57:46;94358.47;;;9.83
31528;BMP280;10206;48.012;10.030;2022-11-20T10:00:14;94355.22;;;9.58
31528;BMP280;10206;48.012;10.030;2022-11-20T10:02:55;94363.84;;;10.48
31528;BMP280;10206;48.012;10.030;2022-11-20T10:05:23;94364.66;;;11.08
31528;BMP280;10206;48.012;10.030;2022-11-20T10:10:34;94360.06;;;11.01
31528;BMP280;10206;48.012;10.030;2022-11-20T10:13:20;94349.19;;;10.82
31528;BMP280;10206;48.012;10.030;2022-11-20T10:16:11;94361.94;;;11.48
31528;BMP280;10206;48.012;10.030;2022-11-20T10:30:12;94346.94;;;11.28
31528;BMP280;10206;48.012;10.030;2022-11-20T10:32:42;94346.84;;;11.07
31528;BMP280;10206;48.012;10.030;2022-11-20T10:35:32;94350.91;;;10.96
31528;BMP280;10206;48.012;10.030;2022-11-20T10:40:55;94340.47;;;10.36
31528;BMP280;10206;48.012;10.030;2022-11-20T10:43:47;94347.25;;;9.79
31528;BMP280;10206;48.012;10.030;2022-11-20T10:46:21;94337.13;;;10.08
31528;BMP280;10206;48.012;10.030;2022-11-20T10:48:51;94329.69;;;9.53
31528;BMP280;10206;48.012;10.030;2022-11-20T10:51:37;94340.97;;;9.40
31528;BMP280;10206;48.012;10.030;2022-11-20T10:56:44;94344.47;;;9.60
31528;BMP280;10206;48.012;10.030;2022-11-20T11:01:46;94344.69;;;9.91
31528;BMP280;10206;48.012;10.030;2022-11-20T11:05:04;94350.44;;;9.49
31528;BMP280;10206;48.012;10.030;2022-11-20T11:07:27;94346.13;;;9.82
31528;BMP280;10206;48.012;10.030;2022-11-20T11:09:56;94337.25;;;10.01
31528;BMP280;10206;48.012;10.030;2022-11-20T11:12:25;94342.25;;;9.85
31528;BMP280;10206;48.012;10.030;2022-11-20T11:14:54;94343.09;;;9.88
31528;BMP280;10206;48.012;10.030;2022-11-20T11:17:29;94334.38;;;9.89
31528;BMP280;10206;48.012;10.030;2022-11-20T11:20:15;94330.53;;;9.92
31528;BMP280;10206;48.012;10.030;2022-11-20T11:22:53;94336.09;;;10.04
31528;BMP280;10206;48.012;10.030;2022-11-20T11:25:39;94331.25;;;9.93
31528;BMP280;10206;48.012;10.030;2022-11-20T11:28:20;94329.53;;;10.07
31528;BMP280;10206;48.012;10.030;2022-11-20T11:30:47;94326.53;;;10.32
31528;BMP280;10206;48.012;10.030;2022-11-20T11:33:29;94322.25;;;10.19
31528;BMP280;10206;48.012;10.030;2022-11-20T11:35:58;94321.91;;;10.05
31528;BMP280;10206;48.012;10.030;2022-11-20T11:38:34;94328.41;;;10.00
31528;BMP280;10206;48.012;10.030;2022-11-20T11:41:02;94327.38;;;10.05
31528;BMP280;10206;48.012;10.030;2022-11-20T11:43:34;94315.47;;;10.10
31528;BMP280;10206;48.012;10.030;2022-11-20T11:46:32;94312.63;;;10.08
31528;BMP280;10206;48.012;10.030;2022-11-20T11:54:16;94304.00;;;9.93
31528;BMP280;10206;48.012;10.030;2022-11-20T11:56:44;94306.63;;;10.19
31528;BMP280;10206;48.012;10.030;2022-11-20T11:59:15;94300.00;;;10.22
31528;BMP280;10206;48.012;10.030;2022-11-20T12:01:57;94309.59;;;10.14
31528;BMP280;10206;48.012;10.030;2022-11-20T12:04:45;94303.28;;;10.30
31528;BMP280;10206;48.012;10.030;2022-11-20T12:09:52;94303.59;;;10.15
31528;BMP280;10206;48.012;10.030;2022-11-20T12:12:31;94294.38;;;10.20
31528;BMP280;10206;48.012;10.030;2022-11-20T12:15:01;94307.03;;;10.35
31528;BMP280;10206;48.012;10.030;2022-11-20T12:17:28;94304.16;;;10.43
31528;BMP280;10206;48.012;10.030;2022-11-20T12:19:54;94302.00;;;10.51
31528;BMP280;10206;48.012;10.030;2022-11-20T12:23:05;94309.16;;;10.46
31528;BMP280;10206;48.012;10.030;2022-11-20T12:25:36;94299.84;;;10.49
31528;BMP280;10206;48.012;10.030;2022-11-20T12:28:14;94297.13;;;10.11
31528;BMP280;10206;48.012;10.030;2022-11-20T12:39:42;94288.09;;;9.99
31528;BMP280;10206;48.012;10.030;2022-11-20T12:59:02;94270.41;;;9.62
31528;BMP280;10206;48.012;10.030;2022-11-20T13:01:56;94266.13;;;9.68
31528;BMP280;10206;48.012;10.030;2022-11-20T13:07:04;94264.56;;;9.84
31528;BMP280;10206;48.012;10.030;2022-11-20T13:09:33;94258.94;;;9.73
31528;BMP280;10206;48.012;10.030;2022-11-20T13:12:24;94255.78;;;9.57
31528;BMP280;10206;48.012;10.030;2022-11-20T13:17:22;94256.84;;;10.19
31528;BMP280;10206;48.012;10.030;2022-11-20T13:19:52;94252.25;;;10.02
31528;BMP280;10206;48.012;10.030;2022-11-20T13:22:52;94250.38;;;9.86
31528;BMP280;10206;48.012;10.030;2022-11-20T13:25:31;94252.13;;;10.19
31528;BMP280;10206;48.012;10.030;2022-11-20T13:27:59;94249.50;;;10.31
31528;BMP280;10206;48.012;10.030;2022-11-20T13:30:27;94243.50;;;9.94
31528;BMP280;10206;48.012;10.030;2022-11-20T13:36:23;94234.00;;;10.24
31528;BMP280;10206;48.012;10.030;2022-11-20T13:38:54;94231.13;;;9.55
31528;BMP280;10206;48.012;10.030;2022-11-20T13:41:35;94237.75;;;9.90
31528;BMP280;10206;48.012;10.030;2022-11-20T13:44:15;94231.72;;;9.92
31528;BMP280;10206;48.012;10.030;2022-11-20T13:46:49;94234.84;;;9.79
31528;BMP280;10206;48.012;10.030;2022-11-20T13:49:27;94224.56;;;9.68
31528;BMP280;10206;48.012;10.030;2022-11-20T13:57:38;94227.28;;;9.96
31528;BMP280;10206;48.012;10.030;2022-11-20T14:00:17;94229.84;;;9.75
31528;BMP280;10206;48.012;10.030;2022-11-20T14:02:44;94226.84;;;9.81
31528;BMP280;10206;48.012;10.030;2022-11-20T14:05:24;94227.00;;;9.73
31528;BMP280;10206;48.012;10.030;2022-11-20T14:07:51;94226.69;;;9.88
31528;BMP280;10206;48.012;10.030;2022-11-20T14:10:24;94222.28;;;9.83
31528;BMP280;10206;48.012;10.030;2022-11-20T14:12:50;94220.66;;;9.42
31528;BMP280;10206;48.012;10.030;2022-11-20T14:15:31;94220.81;;;9.63
31528;BMP280;10206;48.012;10.030;2022-11-20T14:17:58;94224.81;;;9.72
31528;BMP280;10206;48.012;10.030;2022-11-20T14:20:27;94225.84;;;9.67
31528;BMP280;10206;48.012;10.030;2022-11-20T14:22:55;94222.66;;;9.60
31528;BMP280;10206;48.012;10.030;2022-11-20T14:25:26;94218.53;;;9.59
31528;BMP280;10206;48.012;10.030;2022-11-20T14:27:59;94229.88;;;9.94
31528;BMP280;10206;48.012;10.030;2022-11-20T14:30:37;94227.41;;;9.98
31528;BMP280;10206;48.012;10.030;2022-11-20T14:33:05;94228.28;;;10.01
31528;BMP280;10206;48.012;10.030;2022-11-20T14:35:35;94225.56;;;9.91
31528;BMP280;10206;48.012;10.030;2022-11-20T14:38:03;94225.41;;;9.70
31528;BMP280;10206;48.012;10.030;2022-11-20T14:40:36;94222.41;;;9.76
31528;BMP280;10206;48.012;10.030;2022-11-20T14:45:48;94210.22;;;9.57
31528;BMP280;10206;48.012;10.030;2022-11-20T14:48:18;94208.78;;;9.66
31528;BMP280;10206;48.012;10.030;2022-11-20T14:50:44;94214.25;;;9.85
31528;BMP280;10206;48.012;10.030;2022-11-20T14:53:10;94200.53;;;9.28
31528;BMP280;10206;48.012;10.030;2022-11-20T14:55:38;94209.91;;;9.53
31528;BMP280;10206;48.012;10.030;2022-11-20T14:58:23;94206.31;;;9.60
31528;BMP280;10206;48.012;10.030;2022-11-20T15:01:01;94202.59;;;9.56
31528;BMP280;10206;48.012;10.030;2022-11-20T15:03:35;94199.25;;;9.29
31528;BMP280;10206;48.012;10.030;2022-11-20T15:06:03;94199.31;;;9.48
31528;BMP280;10206;48.012;10.030;2022-11-20T15:08:29;94202.88;;;9.60
31528;BMP280;10206;48.012;10.030;2022-11-20T15:10:56;94200.44;;;9.54
31528;BMP280;10206;48.012;10.030;2022-11-20T15:13:38;94200.28;;;9.43
31528;BMP280;10206;48.012;10.030;2022-11-20T15:16:19;94200.41;;;9.35
31528;BMP280;10206;48.012;10.030;2022-11-20T15:18:47;94197.94;;;9.20
31528;BMP280;10206;48.012;10.030;2022-11-20T15:21:15;94204.47;;;9.08
31528;BMP280;10206;48.012;10.030;2022-11-20T15:23:42;94204.91;;;9.04
31528;BMP280;10206;48.012;10.030;2022-11-20T15:26:11;94205.25;;;8.81
31528;BMP280;10206;48.012;10.030;2022-11-20T15:28:41;94197.75;;;8.72
31528;BMP280;10206;48.012;10.030;2022-11-20T15:31:12;94204.44;;;8.62
31528;BMP280;10206;48.012;10.030;2022-11-20T15:33:39;94200.44;;;8.36
31528;BMP280;10206;48.012;10.030;2022-11-20T15:36:05;94198.59;;;8.39
31528;BMP280;10206;48.012;10.030;2022-11-20T15:38:31;94190.94;;;8.10
31528;BMP280;10206;48.012;10.030;2022-11-20T15:40:57;94191.19;;;7.88
31528;BMP280;10206;48.012;10.030;2022-11-20T15:43:24;94182.03;;;7.66
31528;BMP280;10206;48.012;10.030;2022-11-20T15:46:02;94176.28;;;7.62
31528;BMP280;10206;48.012;10.030;2022-11-20T15:48:29;94171.50;;;7.36
31528;BMP280;10206;48.012;10.030;2022-11-20T15:51:10;94163.56;;;7.30